createdAt,value
2022-10-16T00:01:18.497Z,50
2022-10-16T00:06:36.663Z,49.8
2022-10-16T00:17:13.387Z,49.8
2022-10-16T00:22:31.855Z,50.6
2022-10-16T00:27:50.620Z,50.3
2022-10-16T00:33:09.140Z,49.7
2022-10-16T00:38:27.887Z,50
2022-10-16T00:43:46.391Z,49.9
2022-10-16T00:49:04.344Z,49.8
2022-10-16T00:54:22.810Z,49.8
2022-10-16T00:59:41.307Z,49.4
2022-10-16T01:05:00.321Z,49.9
2022-10-16T01:10:19.065Z,49.9
2022-10-16T01:20:56.378Z,49.9
2022-10-16T01:26:14.563Z,50.2
2022-10-16T01:31:33.069Z,50.5
2022-10-16T01:36:51.565Z,50.4
2022-10-16T01:42:10.317Z,50.2
2022-10-16T01:47:29.619Z,51.1
2022-10-16T01:52:47.659Z,51.3
2022-10-16T01:58:05.859Z,51.1
2022-10-16T02:03:24.066Z,50.3
2022-10-16T02:08:42.314Z,50.6
2022-10-16T02:14:01.058Z,51.2
2022-10-16T02:19:19.856Z,51.2
2022-10-16T02:24:38.098Z,51.2
2022-10-16T02:29:56.002Z,51.2
2022-10-16T02:35:14.771Z,50.4
2022-10-16T02:40:33.589Z,50.5
2022-10-16T02:45:52.320Z,50.5
2022-10-16T02:51:10.531Z,50.4
2022-10-16T02:56:13.353Z,50.3
2022-10-16T03:01:32.269Z,51.1
2022-10-16T03:06:50.569Z,50.5
2022-10-16T03:12:09.361Z,50.5
2022-10-16T03:17:29.032Z,50.4
2022-10-16T03:22:47.675Z,50.4
2022-10-16T03:28:05.919Z,50.6
2022-10-16T03:33:24.378Z,51
2022-10-16T03:38:43.144Z,51.4
2022-10-16T03:44:01.103Z,50.6
2022-10-16T03:49:19.015Z,50.8
2022-10-16T03:54:37.484Z,50.9
2022-10-16T03:59:55.459Z,51.5
2022-10-16T04:05:13.917Z,50.7
2022-10-16T04:10:32.675Z,50.4
2022-10-16T04:15:50.625Z,51
2022-10-16T04:21:09.034Z,51.7
2022-10-16T04:26:27.498Z,51.3
2022-10-16T04:31:46.013Z,50.6
2022-10-16T04:37:04.200Z,51.1
2022-10-16T04:42:22.686Z,50.8
2022-10-16T04:47:41.190Z,51.3
2022-10-16T04:52:59.929Z,50.5
2022-10-16T04:58:18.692Z,50.4
2022-10-16T05:03:36.979Z,50.8
2022-10-16T05:08:55.567Z,51
2022-10-16T05:14:14.340Z,50.2
2022-10-16T05:19:33.124Z,50.7
2022-10-16T05:24:51.583Z,50
2022-10-16T05:30:13.199Z,50.7
2022-10-16T05:35:31.695Z,50.2
2022-10-16T05:40:50.167Z,50.1
2022-10-16T05:46:08.089Z,50
2022-10-16T05:51:26.323Z,50.6
2022-10-16T05:56:45.086Z,49.9
2022-10-16T06:02:03.550Z,50.7
2022-10-16T06:07:22.349Z,50.6
2022-10-16T06:12:40.535Z,50.3
2022-10-16T06:17:59.331Z,50.1
2022-10-16T06:23:17.935Z,49.3
2022-10-16T06:28:36.154Z,49.9
2022-10-16T06:33:54.426Z,48.4
2022-10-16T06:39:12.653Z,48.5
2022-10-16T06:44:30.846Z,48.9
2022-10-16T06:49:54.702Z,48.8
2022-10-16T06:55:13.217Z,48.7
2022-10-16T07:00:31.407Z,48.6
2022-10-16T07:05:50.152Z,47.8
2022-10-16T07:11:08.667Z,47.9
2022-10-16T07:16:27.145Z,47.7
2022-10-16T07:21:45.377Z,47.3
2022-10-16T07:27:03.599Z,45.2
2022-10-16T07:32:21.761Z,43.7
2022-10-16T07:37:40.257Z,44.3
2022-10-16T07:42:58.489Z,43.4
2022-10-16T07:48:16.667Z,42.9
2022-10-16T07:53:35.147Z,39.5
2022-10-16T07:58:53.660Z,42.1
2022-10-16T08:04:12.114Z,36.8
2022-10-16T08:09:30.674Z,38
2022-10-16T08:14:49.449Z,37.9
2022-10-16T08:20:08.212Z,40.7
2022-10-16T08:25:26.684Z,42
2022-10-16T08:30:45.202Z,42.3
2022-10-16T08:36:03.380Z,43
2022-10-16T08:41:21.871Z,43
2022-10-16T08:46:40.373Z,42.3
2022-10-16T08:51:45.025Z,42.3
2022-10-16T08:57:09.316Z,43.1
2022-10-16T09:02:29.979Z,42.9
2022-10-16T09:07:49.081Z,42.2
2022-10-16T09:13:07.555Z,42.8
2022-10-16T09:18:33.123Z,42.7
2022-10-16T09:23:51.848Z,42.2
2022-10-16T09:29:10.521Z,39.1
2022-10-16T09:34:28.469Z,38.7
2022-10-16T09:39:46.945Z,40.7
2022-10-16T09:45:05.562Z,39.4
2022-10-16T09:50:24.335Z,40
2022-10-16T09:55:42.777Z,38.1
2022-10-16T10:01:00.978Z,35.8
2022-10-16T10:06:18.932Z,37.9
2022-10-16T10:11:37.364Z,37.2
2022-10-16T10:16:55.293Z,35.8
2022-10-16T10:22:13.841Z,37.8
2022-10-16T10:27:32.269Z,38.9
2022-10-16T10:32:50.754Z,38.6
2022-10-16T10:38:08.969Z,39.1
2022-10-16T10:43:27.422Z,35.5
2022-10-16T10:48:45.904Z,33.8
2022-10-16T10:54:04.796Z,34.8
2022-10-16T10:59:23.251Z,34.6
2022-10-16T11:04:42.002Z,33.1
2022-10-16T11:10:00.789Z,33.6
2022-10-16T11:15:18.976Z,33.8
2022-10-16T11:20:37.459Z,33.1
2022-10-16T11:25:56.241Z,36.1
2022-10-16T11:31:14.142Z,34.7
2022-10-16T11:36:32.900Z,33
2022-10-16T11:41:51.397Z,35
2022-10-16T11:48:00.072Z,33.7
2022-10-16T11:53:18.156Z,33.7
2022-10-16T11:58:36.668Z,32.9
2022-10-16T12:03:55.186Z,34.2
2022-10-16T12:09:13.672Z,33.9
2022-10-16T12:14:32.185Z,34.3
2022-10-16T12:19:50.365Z,34.2
2022-10-16T12:25:09.149Z,34.4
2022-10-16T12:30:35.926Z,34.2
2022-10-16T12:35:54.826Z,34.4
2022-10-16T12:41:13.294Z,34.6
2022-10-16T12:46:32.110Z,33.7
2022-10-16T12:51:50.561Z,35.6
2022-10-16T12:57:08.755Z,36.6
2022-10-16T13:02:11.648Z,34.6
2022-10-16T13:07:30.297Z,33.9
2022-10-16T13:12:48.180Z,34.9
2022-10-16T13:18:06.968Z,37
2022-10-16T13:23:25.386Z,37.7
2022-10-16T13:28:44.104Z,35.7
2022-10-16T13:34:02.010Z,35.6
2022-10-16T13:39:20.175Z,38.4
2022-10-16T13:44:38.929Z,37.7
2022-10-16T13:49:57.708Z,37.2
2022-10-16T13:55:15.855Z,37.2
2022-10-16T14:00:18.724Z,37.3
2022-10-16T14:05:36.950Z,37.1
2022-10-16T14:10:55.399Z,38
2022-10-16T14:15:58.273Z,35.1
2022-10-16T14:21:17.092Z,37.2
2022-10-16T14:26:35.821Z,37.5
2022-10-16T14:31:54.305Z,38.9
2022-10-16T14:37:12.628Z,39
2022-10-16T14:42:31.360Z,38.1
2022-10-16T14:47:49.848Z,37.3
2022-10-16T14:53:08.739Z,38.3
2022-10-16T14:58:27.470Z,38.4
2022-10-16T15:03:45.811Z,38.1
2022-10-16T15:09:04.283Z,37.6
2022-10-16T15:14:22.999Z,39.1
2022-10-16T15:19:41.450Z,38.3
2022-10-16T15:24:59.978Z,38.4
2022-10-16T15:30:18.714Z,36.7
2022-10-16T15:35:37.451Z,37.7
2022-10-16T15:40:55.983Z,39.6
2022-10-16T15:46:14.429Z,40.1
2022-10-16T15:51:17.304Z,38.9
2022-10-16T15:56:36.091Z,38.7
2022-10-16T16:01:54.310Z,39.7
2022-10-16T16:07:12.576Z,40.7
2022-10-16T16:12:30.949Z,41.4
2022-10-16T16:17:49.126Z,41.6
2022-10-16T16:23:07.605Z,41.7
2022-10-16T16:28:25.840Z,41.8
2022-10-16T16:33:44.559Z,42.5
2022-10-16T16:39:03.310Z,42.6
2022-10-16T16:44:22.102Z,43.1
2022-10-16T16:49:40.849Z,43.1
2022-10-16T16:54:59.621Z,43
2022-10-16T17:00:17.836Z,43.6
2022-10-16T17:05:36.023Z,43.7
2022-10-16T17:10:54.234Z,44.3
2022-10-16T17:16:13.470Z,44.3
2022-10-16T17:21:31.392Z,45.4
2022-10-16T17:26:49.559Z,44.3
2022-10-16T17:32:08.101Z,44.8
2022-10-16T17:37:26.247Z,45.4
2022-10-16T17:42:44.724Z,45.5
2022-10-16T17:48:03.517Z,45.4
2022-10-16T17:53:22.248Z,45.3
2022-10-16T17:58:40.175Z,45.3
2022-10-16T18:03:58.705Z,45.3
2022-10-16T18:09:17.163Z,44.4
2022-10-16T18:14:35.911Z,44.9
2022-10-16T18:19:54.411Z,44.6
2022-10-16T18:25:12.861Z,44.9
2022-10-16T18:30:31.353Z,44.7
2022-10-16T18:35:49.829Z,45.4
2022-10-16T18:41:08.283Z,44.5
2022-10-16T18:46:26.760Z,44.7
2022-10-16T18:51:44.986Z,45.2
2022-10-16T18:57:03.218Z,45.3
2022-10-16T19:02:21.124Z,44.6
2022-10-16T19:07:39.725Z,44.8
2022-10-16T19:12:58.465Z,46.2
2022-10-16T19:18:17.219Z,45.6
2022-10-16T19:23:35.731Z,46.4
2022-10-16T19:28:38.434Z,45.9
2022-10-16T19:33:56.924Z,46.3
2022-10-16T19:39:16.046Z,46.1
2022-10-16T19:44:34.608Z,45.4
2022-10-16T19:49:52.872Z,45.6
2022-10-16T19:55:11.086Z,46.2
2022-10-16T20:00:29.556Z,46
2022-10-16T20:05:47.486Z,46.4
2022-10-16T20:11:05.411Z,46.2
2022-10-16T20:16:23.878Z,46
2022-10-16T20:21:42.365Z,46
2022-10-16T20:27:00.607Z,46.4
2022-10-16T20:32:18.504Z,45.9
2022-10-16T20:37:36.710Z,46.2
2022-10-16T20:42:55.230Z,46.7
2022-10-16T20:48:13.975Z,46.8
2022-10-16T20:53:39.647Z,47
2022-10-16T20:58:57.837Z,47.1
2022-10-16T21:04:16.023Z,46.3
2022-10-16T21:09:34.506Z,46.3
2022-10-16T21:15:16.044Z,46.3
2022-10-16T21:20:34.134Z,46.9
2022-10-16T21:25:52.559Z,46.5
2022-10-16T21:31:11.078Z,46.7
2022-10-16T21:36:29.829Z,46.7
2022-10-16T21:41:48.585Z,47.3
2022-10-16T21:47:07.391Z,47.4
2022-10-16T21:52:27.106Z,46.7
2022-10-16T21:57:45.756Z,47.5
2022-10-16T22:03:04.275Z,47.3
2022-10-16T22:08:22.718Z,46.5
2022-10-16T22:13:41.484Z,47.1
2022-10-16T22:19:00.276Z,47.1
2022-10-16T22:24:18.489Z,46.9
2022-10-16T22:29:36.793Z,47.2
2022-10-16T22:34:55.033Z,47.6
2022-10-16T22:40:13.212Z,47.1
2022-10-16T22:45:31.130Z,47.1
2022-10-16T22:50:49.646Z,47.9
2022-10-16T22:56:08.106Z,47.8
2022-10-16T23:01:26.864Z,46.8
2022-10-16T23:06:45.658Z,48.2
2022-10-16T23:12:03.566Z,48
2022-10-16T23:17:22.053Z,47.2
2022-10-16T23:22:40.565Z,48.3
2022-10-16T23:27:59.316Z,47.5
2022-10-16T23:33:17.811Z,47.5
2022-10-16T23:38:36.598Z,47.6
2022-10-16T23:43:55.343Z,47.9
2022-10-16T23:49:13.556Z,47.4
2022-10-16T23:54:31.791Z,47.5
2022-10-16T23:59:50.528Z,48.2
